createdAt,value
2018-03-07T00:02:04.811Z,3.24
2018-03-07T00:04:33.078Z,3.23
2018-03-07T00:07:02.095Z,3.20
2018-03-07T00:09:30.368Z,2.83
2018-03-07T00:11:58.640Z,2.99
2018-03-07T00:14:26.882Z,3.11
2018-03-07T00:16:55.137Z,3.04
2018-03-07T00:19:23.398Z,2.98
2018-03-07T00:21:51.649Z,2.92
2018-03-07T00:24:19.934Z,2.87
2018-03-07T00:26:48.189Z,2.79
2018-03-07T00:29:16.442Z,2.63
2018-03-07T00:31:45.480Z,2.77
2018-03-07T00:34:13.731Z,2.77
2018-03-07T00:36:41.986Z,2.84
2018-03-07T00:39:10.266Z,2.91
2018-03-07T00:41:39.278Z,2.96
2018-03-07T00:44:07.546Z,2.87
2018-03-07T00:46:36.563Z,2.81
2018-03-07T00:49:04.810Z,2.49
2018-03-07T00:51:33.838Z,2.50
2018-03-07T00:54:02.088Z,2.56
2018-03-07T00:56:31.103Z,2.54
2018-03-07T00:58:59.365Z,2.60
2018-03-07T01:01:27.623Z,2.64
2018-03-07T01:03:56.666Z,2.66
2018-03-07T01:06:24.919Z,2.60
2018-03-07T01:08:53.166Z,2.60
2018-03-07T01:11:22.195Z,2.49
2018-03-07T01:13:50.442Z,2.70
2018-03-07T01:16:19.476Z,2.69
2018-03-07T01:18:47.726Z,2.60
2018-03-07T01:21:15.986Z,2.76
2018-03-07T01:23:45.014Z,2.63
2018-03-07T01:26:13.271Z,2.66
2018-03-07T01:28:41.521Z,2.78
2018-03-07T01:31:10.554Z,2.73
2018-03-07T01:33:38.800Z,2.30
2018-03-07T01:36:07.834Z,2.44
2018-03-07T01:38:36.086Z,2.47
2018-03-07T01:41:04.342Z,2.44
2018-03-07T01:43:33.379Z,2.49
2018-03-07T01:46:01.642Z,2.49
2018-03-07T01:48:29.894Z,2.53
2018-03-07T01:50:58.925Z,2.56
2018-03-07T01:53:27.174Z,2.55
2018-03-07T01:55:55.442Z,2.61
2018-03-07T01:58:23.791Z,2.53
2018-03-07T02:00:52.054Z,2.68
2018-03-07T02:03:20.303Z,2.73
2018-03-07T02:05:48.559Z,2.44
2018-03-07T02:08:16.832Z,2.58
2018-03-07T02:10:45.075Z,2.59
2018-03-07T02:13:14.106Z,2.19
2018-03-07T02:15:42.373Z,2.34
2018-03-07T02:18:10.630Z,2.47
2018-03-07T02:20:39.643Z,2.36
2018-03-07T02:23:07.911Z,2.15
2018-03-07T02:25:36.938Z,2.33
2018-03-07T02:28:05.191Z,2.61
2018-03-07T02:30:33.464Z,2.80
2018-03-07T02:33:01.717Z,2.83
2018-03-07T02:35:31.499Z,2.92
2018-03-07T02:37:59.749Z,2.91
2018-03-07T02:40:28.019Z,3.10
2018-03-07T02:42:56.289Z,2.82
2018-03-07T02:45:24.533Z,3.08
2018-03-07T02:47:53.559Z,3.21
2018-03-07T02:50:21.842Z,3.13
2018-03-07T02:52:50.078Z,3.21
2018-03-07T02:55:19.099Z,3.32
2018-03-07T02:57:47.364Z,3.39
2018-03-07T03:00:15.614Z,3.41
2018-03-07T03:02:43.858Z,3.55
2018-03-07T03:05:12.139Z,3.54
2018-03-07T03:07:40.393Z,3.61
2018-03-07T03:10:08.646Z,3.62
2018-03-07T03:12:36.930Z,3.55
2018-03-07T03:15:05.199Z,3.43
2018-03-07T03:17:33.451Z,2.94
2018-03-07T03:20:01.744Z,3.22
2018-03-07T03:22:29.996Z,3.41
2018-03-07T03:24:58.260Z,3.54
2018-03-07T03:27:26.550Z,3.68
2018-03-07T03:29:54.812Z,3.75
2018-03-07T03:32:23.097Z,3.75
2018-03-07T03:34:51.358Z,3.85
2018-03-07T03:37:19.613Z,3.75
2018-03-07T03:39:47.887Z,3.93
2018-03-07T03:42:16.169Z,3.99
2018-03-07T03:44:44.448Z,3.98
2018-03-07T03:47:12.748Z,4.04
2018-03-07T03:49:41.024Z,4.11
2018-03-07T03:52:10.056Z,4.18
2018-03-07T03:54:38.316Z,4.13
2018-03-07T03:57:07.368Z,4.05
2018-03-07T03:59:35.627Z,4.13
2018-03-07T04:02:03.897Z,4.04
2018-03-07T04:04:32.182Z,4.21
2018-03-07T04:07:00.449Z,3.96
2018-03-07T04:09:28.884Z,4.08
2018-03-07T04:11:57.921Z,4.01
2018-03-07T04:14:26.204Z,3.66
2018-03-07T04:16:54.469Z,3.92
2018-03-07T04:19:22.745Z,4.08
2018-03-07T04:21:50.999Z,4.14
2018-03-07T04:24:19.283Z,4.08
2018-03-07T04:26:47.533Z,4.16
2018-03-07T04:29:16.568Z,4.12
2018-03-07T04:31:44.839Z,4.17
2018-03-07T04:34:13.115Z,4.25
2018-03-07T04:36:41.380Z,4.30
2018-03-07T04:39:09.655Z,4.24
2018-03-07T04:41:37.920Z,4.23
2018-03-07T04:44:06.963Z,4.27
2018-03-07T04:46:35.220Z,4.04
2018-03-07T04:49:03.489Z,3.86
2018-03-07T04:51:31.755Z,3.99
2018-03-07T04:54:00.024Z,3.94
2018-03-07T04:56:28.302Z,4.19
2018-03-07T04:58:56.556Z,4.26
2018-03-07T05:01:25.580Z,4.23
2018-03-07T05:03:53.885Z,4.17
2018-03-07T05:06:22.136Z,4.26
2018-03-07T05:08:50.504Z,4.25
2018-03-07T05:11:18.811Z,4.11
2018-03-07T05:13:47.172Z,4.06
2018-03-07T05:16:15.431Z,4.04
2018-03-07T05:18:43.728Z,3.87
2018-03-07T05:21:12.006Z,4.05
2018-03-07T05:23:40.255Z,4.05
2018-03-07T05:26:09.272Z,3.90
2018-03-07T05:28:37.550Z,3.95
2018-03-07T05:31:05.808Z,3.97
2018-03-07T05:33:34.076Z,4.12
2018-03-07T05:36:02.356Z,4.13
2018-03-07T05:38:30.616Z,4.10
2018-03-07T05:40:59.635Z,4.22
2018-03-07T05:43:27.913Z,4.20
2018-03-07T05:45:56.172Z,3.96
2018-03-07T05:48:24.429Z,4.08
2018-03-07T05:50:53.472Z,4.15
2018-03-07T05:53:21.727Z,4.10
2018-03-07T05:55:49.991Z,4.10
2018-03-07T05:58:19.044Z,3.81
2018-03-07T06:00:47.304Z,3.92
2018-03-07T06:03:15.576Z,4.09
2018-03-07T06:05:43.838Z,4.31
2018-03-07T06:08:12.084Z,4.44
2018-03-07T06:10:41.120Z,4.60
2018-03-07T06:13:09.396Z,4.47
2018-03-07T06:15:37.655Z,4.59
2018-03-07T06:18:05.912Z,4.60
2018-03-07T06:20:34.975Z,3.97
2018-03-07T06:23:03.265Z,4.22
2018-03-07T06:25:31.531Z,4.37
2018-03-07T06:27:59.795Z,4.52
2018-03-07T06:30:28.060Z,4.66
2018-03-07T06:32:56.312Z,4.76
2018-03-07T06:35:24.608Z,4.78
2018-03-07T06:37:52.863Z,4.96
2018-03-07T06:40:21.135Z,5.05
2018-03-07T06:42:49.406Z,4.90
2018-03-07T06:45:17.664Z,4.94
2018-03-07T06:47:46.687Z,5.06
2018-03-07T06:50:15.056Z,5.08
2018-03-07T06:52:43.298Z,5.12
2018-03-07T06:55:12.353Z,5.08
2018-03-07T06:57:40.620Z,5.15
2018-03-07T07:00:08.884Z,5.08
2018-03-07T07:02:37.152Z,5.13
2018-03-07T07:05:05.424Z,5.18
2018-03-07T07:07:33.693Z,5.34
2018-03-07T07:10:01.981Z,5.40
2018-03-07T07:12:30.244Z,5.47
2018-03-07T07:14:58.508Z,5.49
2018-03-07T07:17:27.564Z,5.47
2018-03-07T07:19:55.828Z,5.57
2018-03-07T07:22:24.075Z,5.59
2018-03-07T07:24:52.355Z,5.70
2018-03-07T07:27:20.637Z,5.79
2018-03-07T07:29:48.915Z,5.75
2018-03-07T07:32:17.192Z,5.82
2018-03-07T07:34:45.460Z,5.89
2018-03-07T07:37:13.744Z,5.89
2018-03-07T07:39:42.114Z,6.00
2018-03-07T07:42:10.377Z,6.15
2018-03-07T07:44:38.692Z,6.30
2018-03-07T07:47:07.797Z,6.43
2018-03-07T07:49:36.060Z,6.38
2018-03-07T07:52:04.367Z,6.56
2018-03-07T07:54:32.649Z,6.74
2018-03-07T07:57:00.899Z,6.85
2018-03-07T07:59:29.252Z,6.99
2018-03-07T08:01:57.503Z,7.11
2018-03-07T08:04:25.795Z,7.22
2018-03-07T08:06:54.062Z,7.31
2018-03-07T08:09:22.320Z,7.33
2018-03-07T08:11:51.341Z,7.48
2018-03-07T08:14:19.616Z,7.57
2018-03-07T08:16:47.880Z,7.64
2018-03-07T08:19:16.138Z,7.70
2018-03-07T08:21:45.209Z,7.71
2018-03-07T08:24:13.464Z,7.82
2018-03-07T08:26:41.721Z,7.97
2018-03-07T08:29:10.017Z,8.04
2018-03-07T08:31:38.271Z,8.08
2018-03-07T08:34:06.543Z,8.27
2018-03-07T08:36:34.808Z,8.30
2018-03-07T08:39:03.065Z,8.29
2018-03-07T08:41:32.108Z,8.20
2018-03-07T08:44:00.363Z,8.06
2018-03-07T08:46:28.683Z,7.88
2018-03-07T08:48:56.962Z,7.87
2018-03-07T08:51:25.248Z,7.98
2018-03-07T08:53:53.528Z,7.95
2018-03-07T08:56:21.784Z,8.01
2018-03-07T08:58:50.052Z,8.17
2018-03-07T09:01:18.323Z,8.34
2018-03-07T09:03:46.601Z,8.37
2018-03-07T09:06:14.848Z,8.50
2018-03-07T09:08:43.129Z,8.48
2018-03-07T09:11:11.392Z,8.42
2018-03-07T09:13:39.655Z,8.05
2018-03-07T09:16:08.732Z,8.05
2018-03-07T09:18:37.016Z,8.06
2018-03-07T09:21:06.036Z,8.34
2018-03-07T09:23:34.308Z,8.61
2018-03-07T09:26:02.602Z,8.61
2018-03-07T09:28:30.909Z,8.57
2018-03-07T09:30:59.241Z,8.57
2018-03-07T09:33:27.488Z,8.72
2018-03-07T09:35:56.529Z,8.74
2018-03-07T09:38:24.808Z,8.85
2018-03-07T09:40:53.085Z,8.86
2018-03-07T09:43:21.366Z,9.08
2018-03-07T09:45:49.639Z,9.18
2018-03-07T09:48:17.884Z,9.14
2018-03-07T09:50:46.169Z,8.80
2018-03-07T09:53:14.428Z,9.12
2018-03-07T09:55:42.696Z,9.33
2018-03-07T09:58:11.728Z,9.41
2018-03-07T10:00:39.993Z,9.20
2018-03-07T10:03:08.248Z,9.47
2018-03-07T10:05:36.545Z,9.61
2018-03-07T10:08:04.811Z,9.83
2018-03-07T10:10:33.084Z,10.26
2018-03-07T10:13:01.369Z,10.31
2018-03-07T10:15:29.656Z,10.55
2018-03-07T10:17:57.920Z,10.58
2018-03-07T10:20:26.219Z,10.61
2018-03-07T10:22:54.548Z,10.96
2018-03-07T10:25:23.591Z,11.27
2018-03-07T10:27:51.877Z,11.25
2018-03-07T10:30:20.149Z,11.53
2018-03-07T10:32:48.418Z,11.82
2018-03-07T10:35:16.708Z,11.81
2018-03-07T10:37:44.983Z,11.60
2018-03-07T10:40:13.274Z,11.56
2018-03-07T10:42:41.608Z,11.32
2018-03-07T10:45:09.876Z,11.24
2018-03-07T10:47:38.227Z,11.54
2018-03-07T10:50:07.271Z,11.59
2018-03-07T10:52:35.614Z,11.45
2018-03-07T10:55:03.944Z,11.28
2018-03-07T10:57:32.272Z,11.54
2018-03-07T11:00:00.571Z,11.80
2018-03-07T11:02:28.953Z,12.22
2018-03-07T11:04:57.207Z,12.41
2018-03-07T11:07:25.484Z,11.86
2018-03-07T11:09:53.754Z,11.67
2018-03-07T11:12:22.037Z,11.34
2018-03-07T11:14:50.303Z,10.91
2018-03-07T11:17:18.580Z,10.71
2018-03-07T11:19:46.873Z,10.97
2018-03-07T11:22:15.147Z,11.22
2018-03-07T11:25:07.760Z,9.93
2018-03-07T11:27:36.888Z,10.62
2018-03-07T11:30:05.221Z,10.52
2018-03-07T11:32:34.363Z,10.42
2018-03-07T11:35:02.643Z,10.13
2018-03-07T11:37:30.900Z,9.88
2018-03-07T11:39:59.194Z,9.68
2018-03-07T11:42:27.476Z,9.38
2018-03-07T11:44:55.735Z,9.18
2018-03-07T11:47:24.023Z,9.25
2018-03-07T11:49:52.285Z,9.06
2018-03-07T11:52:20.604Z,8.78
2018-03-07T11:54:48.875Z,8.68
2018-03-07T11:57:17.152Z,7.62
2018-03-07T11:59:45.443Z,7.04
2018-03-07T12:02:13.723Z,7.40
2018-03-07T12:04:42.000Z,7.85
2018-03-07T12:07:10.309Z,8.21
2018-03-07T12:09:39.328Z,8.45
2018-03-07T12:12:07.580Z,8.46
2018-03-07T12:14:35.885Z,8.44
2018-03-07T12:17:04.149Z,8.60
2018-03-07T12:19:32.407Z,8.79
2018-03-07T12:22:01.450Z,9.12
2018-03-07T12:24:29.711Z,9.27
2018-03-07T12:26:57.960Z,9.33
2018-03-07T12:29:27.268Z,9.27
2018-03-07T12:31:55.549Z,9.42
2018-03-07T12:34:23.816Z,9.57
2018-03-07T12:36:52.083Z,9.44
2018-03-07T12:39:20.343Z,9.39
2018-03-07T12:41:49.411Z,9.50
2018-03-07T12:44:17.641Z,9.49
2018-03-07T12:46:45.906Z,9.32
2018-03-07T12:49:14.926Z,9.19
2018-03-07T12:51:43.195Z,9.10
2018-03-07T12:54:11.448Z,8.87
2018-03-07T12:56:39.699Z,8.84
2018-03-07T12:59:08.017Z,8.79
2018-03-07T13:01:36.300Z,8.76
2018-03-07T13:04:04.663Z,8.45
2018-03-07T13:06:32.916Z,8.51
2018-03-07T13:09:01.950Z,8.22
2018-03-07T13:11:30.320Z,8.25
2018-03-07T13:13:58.607Z,8.37
2018-03-07T13:16:26.892Z,8.51
2018-03-07T13:18:55.150Z,8.38
2018-03-07T13:21:23.396Z,8.24
2018-03-07T13:23:52.436Z,8.16
2018-03-07T13:26:20.693Z,8.30
2018-03-07T13:28:48.967Z,8.24
2018-03-07T13:31:17.256Z,8.06
2018-03-07T13:33:45.501Z,8.04
2018-03-07T13:36:14.617Z,8.08
2018-03-07T13:38:42.871Z,8.07
2018-03-07T13:41:11.991Z,8.17
2018-03-07T13:43:40.254Z,8.17
2018-03-07T13:46:08.515Z,8.32
2018-03-07T13:48:37.539Z,8.28
2018-03-07T13:51:05.828Z,8.47
2018-03-07T13:53:34.093Z,8.41
2018-03-07T13:56:02.344Z,8.49
2018-03-07T13:58:30.719Z,8.62
2018-03-07T14:00:59.751Z,8.83
2018-03-07T14:03:28.021Z,9.16
2018-03-07T14:05:56.263Z,9.41
2018-03-07T14:08:25.376Z,9.44
2018-03-07T14:10:53.632Z,9.63
2018-03-07T14:13:22.748Z,9.72
2018-03-07T14:15:51.131Z,9.97
2018-03-07T14:18:19.408Z,10.00
2018-03-07T14:20:47.663Z,9.79
2018-03-07T14:23:16.806Z,9.77
2018-03-07T14:25:45.060Z,9.90
2018-03-07T14:28:13.339Z,9.70
2018-03-07T14:30:41.707Z,9.70
2018-03-07T14:33:09.972Z,9.58
2018-03-07T14:35:38.260Z,9.56
2018-03-07T14:38:06.513Z,9.44
2018-03-07T14:40:35.639Z,9.66
2018-03-07T14:43:03.904Z,9.79
2018-03-07T14:45:32.173Z,9.91
2018-03-07T14:48:00.420Z,9.86
2018-03-07T14:50:28.740Z,9.83
2018-03-07T14:52:57.048Z,9.79
2018-03-07T14:55:25.305Z,9.89
2018-03-07T14:57:53.612Z,9.77
2018-03-07T15:00:21.864Z,9.77
2018-03-07T15:02:50.138Z,9.73
2018-03-07T15:05:18.428Z,9.65
2018-03-07T15:07:46.692Z,9.61
2018-03-07T15:10:15.055Z,9.60
2018-03-07T15:12:43.346Z,9.48
2018-03-07T15:15:11.711Z,9.49
2018-03-07T15:17:39.974Z,9.22
2018-03-07T15:20:08.339Z,8.88
2018-03-07T15:22:37.441Z,9.24
2018-03-07T15:25:05.764Z,9.30
2018-03-07T15:27:34.560Z,9.42
2018-03-07T15:30:04.011Z,9.36
2018-03-07T15:32:33.066Z,9.26
2018-03-07T15:35:01.496Z,9.14
2018-03-07T15:37:29.957Z,9.10
2018-03-07T15:39:58.339Z,9.12
2018-03-07T15:42:26.829Z,9.03
2018-03-07T15:44:55.232Z,8.86
2018-03-07T15:47:23.593Z,8.82
2018-03-07T15:49:51.950Z,8.68
2018-03-07T15:52:20.307Z,8.52
2018-03-07T15:54:49.547Z,8.48
2018-03-07T15:57:18.131Z,8.36
2018-03-07T15:59:46.527Z,8.25
2018-03-07T16:02:15.880Z,7.96
2018-03-07T16:04:44.329Z,8.00
2018-03-07T16:07:12.876Z,8.02
2018-03-07T16:09:41.582Z,7.94
2018-03-07T16:12:10.058Z,7.93
2018-03-07T16:14:38.415Z,7.87
2018-03-07T16:17:07.302Z,7.63
2018-03-07T16:19:36.595Z,7.49
2018-03-07T16:22:05.204Z,7.53
2018-03-07T16:24:33.527Z,7.40
2018-03-07T16:27:02.677Z,7.24
2018-03-07T16:29:31.452Z,7.40
2018-03-07T16:32:00.887Z,7.42
2018-03-07T16:34:29.748Z,7.36
2018-03-07T16:36:59.854Z,7.23
2018-03-07T16:39:28.616Z,7.29
2018-03-07T16:41:57.440Z,7.36
2018-03-07T16:44:26.332Z,7.49
2018-03-07T16:46:55.799Z,7.53
2018-03-07T16:49:25.905Z,7.57
2018-03-07T16:51:55.587Z,7.58
2018-03-07T16:54:25.843Z,7.68
2018-03-07T16:56:55.755Z,7.73
2018-03-07T16:59:26.894Z,7.67
2018-03-07T17:01:56.979Z,7.65
2018-03-07T17:04:26.636Z,7.64
2018-03-07T17:06:56.391Z,7.54
2018-03-07T17:09:27.257Z,7.58
2018-03-07T17:11:57.044Z,7.37
2018-03-07T17:14:26.928Z,7.41
2018-03-07T17:16:57.664Z,7.39
2018-03-07T17:19:28.038Z,7.53
2018-03-07T17:21:57.655Z,7.64
2018-03-07T17:24:27.575Z,7.65
2018-03-07T17:26:57.614Z,7.63
2018-03-07T17:29:28.987Z,7.54
2018-03-07T17:31:59.608Z,7.52
2018-03-07T17:34:29.571Z,7.48
2018-03-07T17:36:59.188Z,7.51
2018-03-07T17:39:29.155Z,7.44
2018-03-07T17:41:59.021Z,7.43
2018-03-07T17:44:29.046Z,7.29
2018-03-07T17:46:58.868Z,7.16
2018-03-07T17:49:28.888Z,7.13
2018-03-07T17:51:58.908Z,7.13
2018-03-07T17:54:28.708Z,6.94
2018-03-07T17:57:00.328Z,6.99
2018-03-07T17:59:30.643Z,6.89
2018-03-07T18:02:00.602Z,6.90
2018-03-07T18:04:30.537Z,7.04
2018-03-07T18:07:01.111Z,7.12
2018-03-07T18:09:30.986Z,7.13
2018-03-07T18:12:01.651Z,6.85
2018-03-07T18:14:31.695Z,6.47
2018-03-07T18:17:01.719Z,6.61
2018-03-07T18:19:31.690Z,6.58
2018-03-07T18:22:02.360Z,6.43
2018-03-07T18:24:32.534Z,6.43
2018-03-07T18:27:03.560Z,6.55
2018-03-07T18:29:35.167Z,6.51
2018-03-07T18:32:05.166Z,6.35
2018-03-07T18:34:35.320Z,6.46
2018-03-07T18:37:05.133Z,6.39
2018-03-07T18:39:35.591Z,6.26
2018-03-07T18:42:05.520Z,6.35
2018-03-07T18:44:36.298Z,6.12
2018-03-07T18:47:06.174Z,6.09
2018-03-07T18:49:36.214Z,6.08
2018-03-07T18:52:06.411Z,6.06
2018-03-07T18:54:37.357Z,6.17
2018-03-07T18:57:07.427Z,6.28
2018-03-07T18:59:37.316Z,6.36
2018-03-07T19:02:07.353Z,6.13
2018-03-07T19:04:37.533Z,6.25
2018-03-07T19:07:07.595Z,5.96
2018-03-07T19:09:37.557Z,6.05
2018-03-07T19:12:09.352Z,6.12
2018-03-07T19:14:39.290Z,6.07
2018-03-07T19:17:09.579Z,6.11
2018-03-07T19:19:39.435Z,6.23
2018-03-07T19:22:10.037Z,6.30
2018-03-07T19:24:40.999Z,6.42
2018-03-07T19:27:10.868Z,6.56
2018-03-07T19:29:40.608Z,6.54
2018-03-07T19:32:10.477Z,6.66
2018-03-07T19:34:41.176Z,6.84
2018-03-07T19:37:11.723Z,6.91
2018-03-07T19:39:42.980Z,7.02
2018-03-07T19:42:12.897Z,7.04
2018-03-07T19:44:42.913Z,7.01
2018-03-07T19:47:12.382Z,6.98
2018-03-07T19:49:44.332Z,6.88
2018-03-07T19:52:14.378Z,6.75
2018-03-07T19:54:45.155Z,6.89
2018-03-07T19:57:15.254Z,6.81
2018-03-07T19:59:45.959Z,6.88
2018-03-07T20:02:16.531Z,6.78
2018-03-07T20:04:46.527Z,6.93
2018-03-07T20:07:16.722Z,6.56
2018-03-07T20:09:46.526Z,6.64
2018-03-07T20:12:16.620Z,6.77
2018-03-07T20:14:46.733Z,6.80
2018-03-07T20:17:16.623Z,6.79
2018-03-07T20:19:46.639Z,6.78
2018-03-07T20:22:16.745Z,6.87
2018-03-07T20:24:46.661Z,6.83
2018-03-07T20:27:16.805Z,6.75
2018-03-07T20:29:46.765Z,6.85
2018-03-07T20:32:17.466Z,6.71
2018-03-07T20:34:47.644Z,6.84
2018-03-07T20:37:17.473Z,6.84
2018-03-07T20:39:47.443Z,6.85
2018-03-07T20:42:18.146Z,6.53
2018-03-07T20:44:48.854Z,6.40
2018-03-07T20:47:18.894Z,6.50
2018-03-07T20:49:49.300Z,6.41
2018-03-07T20:52:20.310Z,6.36
2018-03-07T20:54:51.006Z,6.41
2018-03-07T20:57:20.766Z,6.32
2018-03-07T20:59:50.781Z,6.21
2018-03-07T21:02:22.496Z,6.21
2018-03-07T21:04:52.604Z,6.34
2018-03-07T21:07:22.365Z,6.31
2018-03-07T21:09:53.198Z,6.23
2018-03-07T21:12:23.948Z,6.24
2018-03-07T21:14:53.852Z,6.33
2018-03-07T21:17:23.625Z,6.28
2018-03-07T21:19:53.655Z,6.39
2018-03-07T21:22:23.502Z,6.21
2018-03-07T21:24:54.439Z,6.19
2018-03-07T21:27:24.423Z,5.91
2018-03-07T21:29:54.551Z,5.90
2018-03-07T21:32:26.247Z,5.78
2018-03-07T21:34:56.220Z,5.88
2018-03-07T21:37:26.773Z,5.84
2018-03-07T21:39:57.420Z,5.80
2018-03-07T21:42:27.201Z,5.93
2018-03-07T21:44:57.906Z,5.83
2018-03-07T21:47:27.939Z,5.89
2018-03-07T21:49:58.696Z,5.77
2018-03-07T21:52:29.332Z,5.62
2018-03-07T21:54:59.565Z,5.57
2018-03-07T21:57:29.350Z,5.51
2018-03-07T22:00:00.308Z,5.63
2018-03-07T22:02:30.213Z,5.62
2018-03-07T22:05:00.966Z,5.60
2018-03-07T22:07:30.802Z,5.49
2018-03-07T22:10:01.577Z,5.48
2018-03-07T22:12:31.261Z,5.34
2018-03-07T22:15:01.443Z,5.26
2018-03-07T22:17:31.315Z,5.31
2018-03-07T22:20:01.249Z,5.26
2018-03-07T22:22:31.944Z,5.20
2018-03-07T22:25:01.559Z,5.20
2018-03-07T22:27:31.138Z,5.15
2018-03-07T22:29:59.628Z,4.98
2018-03-07T22:32:28.017Z,5.11
2018-03-07T22:34:57.141Z,4.93
2018-03-07T22:37:25.535Z,5.05
2018-03-07T22:39:53.819Z,4.98
2018-03-07T22:42:22.104Z,4.96
2018-03-07T22:44:50.374Z,4.92
2018-03-07T22:47:18.644Z,4.99
2018-03-07T22:49:46.904Z,4.94
2018-03-07T22:52:15.174Z,5.12
2018-03-07T22:54:43.428Z,5.11
2018-03-07T22:57:11.775Z,5.09
2018-03-07T22:59:40.032Z,5.04
2018-03-07T23:02:08.279Z,4.93
2018-03-07T23:04:36.546Z,5.01
2018-03-07T23:07:05.610Z,5.13
2018-03-07T23:09:33.856Z,5.26
2018-03-07T23:12:02.135Z,5.03
2018-03-07T23:14:30.380Z,5.28
2018-03-07T23:16:58.640Z,5.36
2018-03-07T23:19:27.676Z,5.35
2018-03-07T23:21:55.939Z,5.19
2018-03-07T23:24:24.192Z,5.22
2018-03-07T23:26:52.472Z,5.13
2018-03-07T23:29:21.488Z,5.10
2018-03-07T23:31:49.772Z,4.99
2018-03-07T23:34:18.126Z,5.01
2018-03-07T23:36:46.408Z,5.05
2018-03-07T23:39:14.670Z,5.13
2018-03-07T23:41:43.708Z,5.14
2018-03-07T23:44:11.968Z,5.18
2018-03-07T23:46:40.315Z,5.09
2018-03-07T23:49:08.581Z,4.91
2018-03-07T23:51:37.604Z,4.99
2018-03-07T23:54:05.883Z,4.66
2018-03-07T23:56:34.156Z,4.82
2018-03-07T23:59:02.536Z,4.69
